Pagrindinis puslapis
METAR-TAF:

METAR-TAF

Oro uostai :

Enontekiö, Suomija

platuma: 68-21-52N, ilguma: 023-25-39E, Aukštis: 308 m

Dabartinis oras

Ataskaita buvo paskelbta 41 minutes, ne 03:50 UTC
Vėjas 3 kt iš Šiaurės Rytų
Temperatūra -4°C
Drėgmė 93%
Slėgis 1013 hPa
Matomumas 10 km arba daugiau
Apsiniaukę ne aukštis 3000 ft

METAR: EFET 210350Z AUTO 04003KT 9999 OVC030 M04/M05 Q1013

Laikas: 07:31 (04:31 UTC)


TAF: trūkstamas

Orai ataskaitas ir orų prognozės (METAR, TAF).

turimą stotys yra geltonos ir raudonos taškus žemėlapyje.

Perkelti pele per norėdami pamatyti stoties vardą.

Tada spustelėkite, norėdami matyti oro stebėjimo ir prognozės.

Norėdami pakeisti žemėlapį: spustelėkite ant žalios mygtukų su juodo kryžiaus žemyn,; žalią mygtuką su brūkšneliu, jei norite nutolinti; arba žalių rodyklių gretimoms žemėlapius.


METAR-TAF: